Hays, KS

12:02 PM CST on December 11, 2017 (GMT -0600)
Hays Regional

Weather History for KHYS - May, 2013

Change the Weather History Date:

Saturday, May 25, 2013

  Actual Average Record
Temperature  
Mean Temperature 78 °F -  
Max Temperature 89 °F 77 °F 91 °F (2006)
Min Temperature 66 °F 51 °F 39 °F (2002)
Cooling Degree Days 12    
Growing Degree Days 28 (Base 50)    
Moisture  
Dew Point 61 °F    
Average Humidity 61    
Maximum Humidity 83    
Minimum Humidity 36    
Precipitation  
Precipitation 0.00 in - - ()
Sea Level Pressure  
Sea Level Pressure 29.95 in    
Wind  
Wind Speed 19 mph (South)    
Max Wind Speed 29 mph    
Max Gust Speed 38 mph    
Visibility 10 miles    
Events      
Averages and records for this station are not official NWS values.
T = Trace of Precipitation, MM = Missing Value Source: NWS Daily Summary

Daily Weather History Graph

Daily Weather History Graph

Search for Another Location

Airport or City:

Trip Planner

Search our weather history database for the weather conditions in past years. The results will help you decide how hot, cold, wet, or windy it might be!

Date:

Astronomy

May. 25, 2013 Rise Set
Actual Time 6:17 AM CDT 8:51 PM CDT
Civil Twilight 5:46 AM CDT 9:22 PM CDT
Nautical Twilight 5:07 AM CDT 10:00 PM CDT
Astronomical Twilight 4:25 AM CDT 10:43 PM CDT
Moon 9:41 PM CDT (5/25) 6:45 AM CDT (5/25)
Length of Visible Light 15h 36m
Length of Day
14h 34m
Full, 100% of the Moon is Illuminated
May 25
Full
May 31
Last Quarter
Jun 8
New
Jun 16
First Quarter
Jun 23
Full

Hourly Weather History & Observations

Time (CDT) Temp. Heat Index Dew Point Humidity Pressure Visibility Wind Dir Wind Speed Gust Speed Precip Events Conditions
12:15 AM 71.6 °F - 66.2 °F 83% 30.03 in 10.0 mi SSE 19.6 mph 24.2 mph N/A   Overcast
12:35 AM 71.6 °F - 66.2 °F 83% 30.03 in 10.0 mi SSE 17.3 mph 25.3 mph N/A   Overcast
12:55 AM 71.6 °F - 66.2 °F 83% 30.02 in 10.0 mi South 17.3 mph - N/A   Overcast
1:15 AM 73.4 °F - 66.2 °F 78% 30.00 in 10.0 mi South 20.7 mph 28.8 mph N/A   Overcast
1:35 AM 71.6 °F - 66.2 °F 83% 29.99 in 10.0 mi South 24.2 mph 32.2 mph N/A   Mostly Cloudy
1:55 AM 71.6 °F - 66.2 °F 83% 29.98 in 10.0 mi South 23.0 mph 29.9 mph N/A   Partly Cloudy
2:15 AM 71.6 °F - 64.4 °F 78% 29.98 in 10.0 mi South 20.7 mph 31.1 mph N/A   Clear
2:35 AM 69.8 °F - 64.4 °F 83% 29.97 in 10.0 mi South 24.2 mph 28.8 mph N/A   Clear
2:55 AM 69.8 °F - 64.4 °F 83% 29.97 in 10.0 mi South 21.9 mph 28.8 mph N/A   Clear
3:15 AM 69.8 °F - 62.6 °F 78% 29.96 in 10.0 mi South 21.9 mph 28.8 mph N/A   Clear
3:35 AM 69.8 °F - 62.6 °F 78% 29.95 in 10.0 mi South 21.9 mph 28.8 mph N/A   Clear
3:55 AM 69.8 °F - 60.8 °F 73% 29.95 in 10.0 mi South 20.7 mph 26.5 mph N/A   Clear
4:15 AM 69.8 °F - 60.8 °F 73% 29.95 in 10.0 mi South 21.9 mph 27.6 mph N/A   Clear
4:35 AM 68.0 °F - 59.0 °F 73% 29.93 in 10.0 mi South 21.9 mph 28.8 mph N/A   Clear
4:55 AM 68.0 °F - 57.2 °F 68% 29.93 in 10.0 mi South 25.3 mph 29.9 mph N/A   Clear
5:15 AM 66.2 °F - 57.2 °F 73% 29.93 in 10.0 mi South 21.9 mph 28.8 mph N/A   Clear
5:35 AM 66.2 °F - 57.2 °F 73% 29.93 in 10.0 mi South 20.7 mph 28.8 mph N/A   Clear
5:55 AM 66.2 °F - 57.2 °F 73% 29.96 in 10.0 mi South 16.1 mph 23.0 mph N/A   Clear
6:15 AM 66.2 °F - 57.2 °F 73% 29.99 in 10.0 mi SSW 15.0 mph - N/A   Clear
6:35 AM 66.2 °F - 57.2 °F 73% 29.99 in 10.0 mi South 15.0 mph 19.6 mph N/A   Clear
6:55 AM 66.2 °F - 55.4 °F 68% 30.01 in 10.0 mi South 3.5 mph - N/A   Clear
7:15 AM 66.2 °F - 57.2 °F 73% 30.01 in 10.0 mi South 9.2 mph - N/A   Clear
7:35 AM 66.2 °F - 57.2 °F 73% 30.00 in 10.0 mi South 16.1 mph - N/A   Clear
7:55 AM 68.0 °F - 57.2 °F 68% 30.01 in 10.0 mi South 16.1 mph - N/A   Clear
8:15 AM 69.8 °F - 59.0 °F 68% 30.02 in 10.0 mi South 16.1 mph 19.6 mph N/A   Clear
8:35 AM 69.8 °F - 57.2 °F 64% 30.03 in 10.0 mi South 12.7 mph - N/A   Clear
8:55 AM 69.8 °F - 57.2 °F 64% 30.05 in 10.0 mi South 5.8 mph - N/A   Clear
9:15 AM 69.8 °F - 59.0 °F 68% 30.05 in 10.0 mi ESE 4.6 mph - N/A   Clear
9:35 AM 73.4 °F - 60.8 °F 65% 30.04 in 10.0 mi SSE 8.1 mph - N/A   Clear
9:55 AM 73.4 °F - 60.8 °F 65% 30.03 in 10.0 mi SSW 13.8 mph 19.6 mph N/A   Clear
10:15 AM 73.4 °F - 59.0 °F 61% 30.03 in 10.0 mi South 6.9 mph - N/A   Clear
10:35 AM 73.4 °F - 59.0 °F 61% 30.04 in 10.0 mi SSW 11.5 mph 16.1 mph N/A   Clear
10:55 AM 77.0 °F - 60.8 °F 57% 30.02 in 10.0 mi SW 11.5 mph 17.3 mph N/A   Clear
11:15 AM 77.0 °F - 60.8 °F 57% 30.01 in 10.0 mi South 15.0 mph - N/A   Clear
11:35 AM 78.8 °F - 60.8 °F 54% 30.00 in 10.0 mi SSW 13.8 mph 19.6 mph N/A   Clear
11:55 AM 80.6 °F 81.5 °F 60.8 °F 51% 30.01 in 10.0 mi SSW 18.4 mph 25.3 mph N/A   Clear
12:15 PM 80.6 °F 81.5 °F 60.8 °F 51% 29.99 in 10.0 mi SSW 18.4 mph 24.2 mph N/A   Clear
12:35 PM 78.8 °F - 60.8 °F 54% 29.99 in 10.0 mi South 16.1 mph 20.7 mph N/A   Clear
12:55 PM 80.6 °F 81.8 °F 62.6 °F 54% 29.98 in 10.0 mi South 16.1 mph 20.7 mph N/A   Clear
1:15 PM 84.2 °F 85.0 °F 62.6 °F 48% 29.97 in 10.0 mi SSW 19.6 mph 24.2 mph N/A   Clear
1:35 PM 84.2 °F 85.0 °F 62.6 °F 48% 29.96 in 10.0 mi South 17.3 mph 28.8 mph N/A   Clear
1:55 PM 86.0 °F 86.6 °F 62.6 °F 45% 29.95 in 10.0 mi South 20.7 mph 31.1 mph N/A   Clear
2:15 PM 87.8 °F 87.6 °F 60.8 °F 40% 29.93 in 10.0 mi South 23.0 mph 28.8 mph N/A   Clear
2:35 PM 87.8 °F 87.6 °F 60.8 °F 40% 29.93 in 10.0 mi South 23.0 mph 28.8 mph N/A   Clear
2:55 PM 89.6 °F 89.5 °F 60.8 °F 38% 29.92 in 10.0 mi South 20.7 mph 33.4 mph N/A   Clear
3:15 PM 89.6 °F 89.5 °F 60.8 °F 38% 29.91 in 10.0 mi South 23.0 mph 32.2 mph N/A   Clear
3:35 PM 89.6 °F 89.5 °F 60.8 °F 38% 29.91 in 10.0 mi South 25.3 mph 28.8 mph N/A   Clear
3:55 PM 89.6 °F 89.5 °F 60.8 °F 38% 29.90 in 10.0 mi South 21.9 mph 33.4 mph N/A   Clear
4:15 PM 89.6 °F 89.5 °F 60.8 °F 38% 29.90 in 10.0 mi South 24.2 mph 33.4 mph N/A   Clear
4:35 PM 89.6 °F 88.9 °F 59.0 °F 36% 29.89 in 10.0 mi SSW 26.5 mph 34.5 mph N/A   Clear
4:55 PM 89.6 °F 89.5 °F 60.8 °F 38% 29.89 in 10.0 mi South 28.8 mph 34.5 mph N/A   Clear
5:15 PM 89.6 °F 89.5 °F 60.8 °F 38% 29.89 in 10.0 mi South 23.0 mph 31.1 mph N/A   Clear
5:35 PM 87.8 °F 87.1 °F 59.0 °F 38% 29.88 in 10.0 mi South 28.8 mph 38.0 mph N/A   Clear
5:55 PM 87.8 °F 87.6 °F 60.8 °F 40% 29.88 in 10.0 mi South 25.3 mph 36.8 mph N/A   Clear
6:15 PM 86.0 °F 86.1 °F 60.8 °F 43% 29.87 in 10.0 mi SSE 27.6 mph 33.4 mph N/A   Clear
6:35 PM 84.2 °F 84.4 °F 60.8 °F 45% 29.87 in 10.0 mi ESE 21.9 mph 31.1 mph N/A   Clear
6:55 PM 84.2 °F 84.4 °F 60.8 °F 45% 29.86 in 10.0 mi East 24.2 mph 33.4 mph N/A   Clear
7:15 PM 82.4 °F 82.9 °F 60.8 °F 48% 29.87 in 10.0 mi ESE 23.0 mph 33.4 mph N/A   Clear
7:35 PM 80.6 °F 81.5 °F 60.8 °F 51% 29.88 in 10.0 mi ENE 24.2 mph 31.1 mph N/A   Clear
7:55 PM 80.6 °F 81.5 °F 60.8 °F 51% 29.88 in 10.0 mi SE 23.0 mph - N/A   Clear
8:15 PM 78.8 °F - 60.8 °F 54% 29.89 in 10.0 mi SE 19.6 mph 25.3 mph N/A   Clear
8:35 PM 78.8 °F - 60.8 °F 54% 29.89 in 10.0 mi SE 20.7 mph 24.2 mph N/A   Clear
8:55 PM 77.0 °F - 60.8 °F 57% 29.89 in 10.0 mi SE 16.1 mph 20.7 mph N/A   Clear
9:15 PM 77.0 °F - 60.8 °F 57% 29.89 in 10.0 mi SSE 17.3 mph 23.0 mph N/A   Clear
9:35 PM 75.2 °F - 60.8 °F 61% 29.89 in 10.0 mi SSE 16.1 mph 21.9 mph N/A   Clear
9:55 PM 75.2 °F - 60.8 °F 61% 29.90 in 10.0 mi SSE 16.1 mph - N/A   Clear
10:15 PM 75.2 °F - 60.8 °F 61% 29.91 in 10.0 mi SE 16.1 mph 23.0 mph N/A   Clear
10:35 PM 73.4 °F - 62.6 °F 69% 29.93 in 10.0 mi SSE 18.4 mph - N/A   Clear
10:55 PM 73.4 °F - 62.6 °F 69% 29.96 in 10.0 mi SSE 17.3 mph - N/A   Clear
11:15 PM 71.6 °F - 62.6 °F 73% 29.96 in 10.0 mi SSE 15.0 mph 23.0 mph N/A   Clear
11:35 PM 71.6 °F - 62.6 °F 73% 29.95 in 10.0 mi SSE 15.0 mph 23.0 mph N/A   Clear
11:55 PM 71.6 °F - 62.6 °F 73% 29.95 in 10.0 mi SSE 11.5 mph 18.4 mph N/A   Clear